Aérodrome :







RETROUVEZ-NOUS SUR...

 
LOGIN :

S'inscrire | Disclaimer

   EN    FR    IT 

 









Légende :    VFR   VFR Marginal   IFR   IFR Intensif   IFR Très Intensif
Visi : 
Plafond : 
>= 8 km
>= 3000ft
5 à 8 km
1000 à 3000 ft
1500m à 5 km
500 à 1000 ft
800 à 1500m
200 à 500 ft
< 800m
< 200 ft
Symboles :   Orages  Brouillard  Fortes neiges  Fortes précipitations  Vent > 20 kt






- Altitude de l'aérodrome : 71 ft
- Code IATA : YBC


CYBC - Baie Comeau

DERNIER METAR :
  • 271116Z AUTO 00000KT 9SM OVC007 00/00 A2990 RMK SLP127

METARs EXPIRÉS :
  • 271100Z AUTO 00000KT 9SM -RA OVC007 00/00 A2990 RMK SLP127
  • 271044Z AUTO 00000KT 9SM -RA OVC007 00/00 A2990 RMK SLP127
  • 271000Z AUTO VRB02KT 9SM OVC009 00/00 A2988 RMK SLP123
  • 270900Z AUTO 12003KT 9SM OVC013 00/00 A2988 RMK SLP125

TAF AMD TAF CYBC
Valide du 27 à 08h jusqu'au 27 à 20h UTC


270811Z 2708/2720 18005KT 2SM -DZ BR OVC004
TEMPO 2708/2712 6SM BR OVC012
PROB40 2708/2712 1/2SM FG VV002
FM271200 24008KT P6SM SCT004 OVC040
TEMPO 2712/2714 3SM BR BKN004
FM271400 24008KT P6SM FEW004 BKN030
BECMG 2714/2716 27008KT SCT030 RMK FCST BASED ON AUTO OBS. NXT FCST BY 271400Z
FIR CZUL / Amérique du Nord



MET'MAP, la Météo Aéronautique d'un coup d'oeil ! - Copyright ORBIFLY Décembre 2007 - Disclaimer

ORBIFLY MET'MAP TEAM :

Programmation & Développement : Alexandra Zaïnal
Sur une idée originale de : Baudouin d'Aumeries
Assistance à la programmation : Marc-Olivier Méhu
Soutien technique & logistique : Manuel Goepfert

Contact : metmap@orbifly.com




SOURCES & CREDITS :

   NOAA